sensor_id;sensor_type;location;lat;lon;timestamp;P1;durP1;ratioP1;P2;durP2;ratioP2
70806;SDS011;58882;52.170;5.386;2022-07-23T00:00:46;5.05;;;2.28;;
70806;SDS011;58882;52.170;5.386;2022-07-23T00:03:33;4.05;;;2.00;;
70806;SDS011;58882;52.170;5.386;2022-07-23T00:06:06;4.88;;;1.88;;
70806;SDS011;58882;52.170;5.386;2022-07-23T00:09:00;6.90;;;2.10;;
70806;SDS011;58882;52.170;5.386;2022-07-23T00:11:54;6.63;;;2.10;;
70806;SDS011;58882;52.170;5.386;2022-07-23T00:14:35;5.53;;;2.03;;
70806;SDS011;58882;52.170;5.386;2022-07-23T00:17:21;4.30;;;2.33;;
70806;SDS011;58882;52.170;5.386;2022-07-23T00:20:02;7.38;;;2.45;;
70806;SDS011;58882;52.170;5.386;2022-07-23T00:22:56;4.50;;;2.05;;
70806;SDS011;58882;52.170;5.386;2022-07-23T00:25:36;6.13;;;2.08;;
70806;SDS011;58882;52.170;5.386;2022-07-23T00:28:31;6.57;;;2.28;;
70806;SDS011;58882;52.170;5.386;2022-07-23T00:31:04;5.88;;;2.38;;
70806;SDS011;58882;52.170;5.386;2022-07-23T00:33:58;7.15;;;2.30;;
70806;SDS011;58882;52.170;5.386;2022-07-23T00:36:40;8.45;;;2.42;;
70806;SDS011;58882;52.170;5.386;2022-07-23T00:39:27;5.88;;;2.30;;
70806;SDS011;58882;52.170;5.386;2022-07-23T00:42:07;8.95;;;2.40;;
70806;SDS011;58882;52.170;5.386;2022-07-23T00:44:54;8.38;;;2.72;;
70806;SDS011;58882;52.170;5.386;2022-07-23T00:47:35;5.93;;;2.30;;
70806;SDS011;58882;52.170;5.386;2022-07-23T00:50:23;8.20;;;2.40;;
70806;SDS011;58882;52.170;5.386;2022-07-23T00:53:03;6.40;;;2.30;;
70806;SDS011;58882;52.170;5.386;2022-07-23T00:55:51;9.88;;;2.30;;
70806;SDS011;58882;52.170;5.386;2022-07-23T00:58:33;5.63;;;2.45;;
70806;SDS011;58882;52.170;5.386;2022-07-23T01:01:21;6.45;;;2.22;;
70806;SDS011;58882;52.170;5.386;2022-07-23T01:04:01;6.90;;;2.45;;
70806;SDS011;58882;52.170;5.386;2022-07-23T01:06:55;8.00;;;2.20;;
70806;SDS011;58882;52.170;5.386;2022-07-23T01:09:30;7.13;;;2.58;;
70806;SDS011;58882;52.170;5.386;2022-07-23T01:12:24;7.22;;;2.40;;
70806;SDS011;58882;52.170;5.386;2022-07-23T01:14:58;5.50;;;2.42;;
70806;SDS011;58882;52.170;5.386;2022-07-23T01:17:52;5.78;;;2.42;;
70806;SDS011;58882;52.170;5.386;2022-07-23T01:20:34;5.32;;;2.63;;
70806;SDS011;58882;52.170;5.386;2022-07-23T01:23:28;5.53;;;2.60;;
70806;SDS011;58882;52.170;5.386;2022-07-23T01:26:08;6.32;;;2.50;;
70806;SDS011;58882;52.170;5.386;2022-07-23T01:28:56;5.70;;;2.83;;
70806;SDS011;58882;52.170;5.386;2022-07-23T01:31:38;5.85;;;2.40;;
70806;SDS011;58882;52.170;5.386;2022-07-23T01:34:32;6.65;;;2.90;;
70806;SDS011;58882;52.170;5.386;2022-07-23T01:37:06;9.45;;;3.15;;
70806;SDS011;58882;52.170;5.386;2022-07-23T01:39:59;7.85;;;2.95;;
70806;SDS011;58882;52.170;5.386;2022-07-23T01:42:40;9.73;;;3.08;;
70806;SDS011;58882;52.170;5.386;2022-07-23T01:45:27;7.88;;;2.72;;
70806;SDS011;58882;52.170;5.386;2022-07-23T01:48:08;5.03;;;2.90;;
70806;SDS011;58882;52.170;5.386;2022-07-23T01:51:18;8.88;;;2.65;;
70806;SDS011;58882;52.170;5.386;2022-07-23T01:54:06;6.78;;;2.70;;
70806;SDS011;58882;52.170;5.386;2022-07-23T01:56:53;5.30;;;2.55;;
70806;SDS011;58882;52.170;5.386;2022-07-23T01:59:34;6.15;;;2.70;;
70806;SDS011;58882;52.170;5.386;2022-07-23T02:02:24;8.65;;;3.00;;
70806;SDS011;58882;52.170;5.386;2022-07-23T02:05:24;7.65;;;2.65;;
70806;SDS011;58882;52.170;5.386;2022-07-23T02:08:11;7.85;;;2.63;;
70806;SDS011;58882;52.170;5.386;2022-07-23T02:10:58;4.88;;;2.30;;
70806;SDS011;58882;52.170;5.386;2022-07-23T02:13:52;6.93;;;2.70;;
70806;SDS011;58882;52.170;5.386;2022-07-23T02:16:33;7.28;;;2.80;;
70806;SDS011;58882;52.170;5.386;2022-07-23T02:19:19;6.50;;;2.80;;
70806;SDS011;58882;52.170;5.386;2022-07-23T02:22:00;6.05;;;2.78;;
70806;SDS011;58882;52.170;5.386;2022-07-23T02:24:47;7.63;;;3.03;;
70806;SDS011;58882;52.170;5.386;2022-07-23T02:27:28;6.43;;;2.60;;
70806;SDS011;58882;52.170;5.386;2022-07-23T02:30:14;5.30;;;2.67;;
70806;SDS011;58882;52.170;5.386;2022-07-23T02:35:41;6.78;;;3.10;;
70806;SDS011;58882;52.170;5.386;2022-07-23T02:38:22;7.80;;;3.15;;
70806;SDS011;58882;52.170;5.386;2022-07-23T02:43:50;8.57;;;2.80;;
70806;SDS011;58882;52.170;5.386;2022-07-23T02:46:36;5.20;;;2.90;;
70806;SDS011;58882;52.170;5.386;2022-07-23T02:49:17;6.57;;;2.65;;
70806;SDS011;58882;52.170;5.386;2022-07-23T02:52:04;8.20;;;2.85;;
70806;SDS011;58882;52.170;5.386;2022-07-23T02:54:44;6.40;;;2.88;;
70806;SDS011;58882;52.170;5.386;2022-07-23T02:57:31;7.35;;;3.13;;
70806;SDS011;58882;52.170;5.386;2022-07-23T03:00:12;6.80;;;2.67;;
70806;SDS011;58882;52.170;5.386;2022-07-23T03:02:59;7.22;;;3.03;;
70806;SDS011;58882;52.170;5.386;2022-07-23T03:05:40;7.57;;;2.95;;
70806;SDS011;58882;52.170;5.386;2022-07-23T03:08:34;9.18;;;3.25;;
70806;SDS011;58882;52.170;5.386;2022-07-23T03:11:08;6.75;;;3.63;;
70806;SDS011;58882;52.170;5.386;2022-07-23T03:14:01;8.63;;;3.42;;
70806;SDS011;58882;52.170;5.386;2022-07-23T03:16:42;7.57;;;3.40;;
70806;SDS011;58882;52.170;5.386;2022-07-23T03:19:29;8.43;;;3.83;;
70806;SDS011;58882;52.170;5.386;2022-07-23T03:22:10;8.70;;;3.55;;
70806;SDS011;58882;52.170;5.386;2022-07-23T03:24:56;7.38;;;3.78;;
70806;SDS011;58882;52.170;5.386;2022-07-23T03:27:33;7.97;;;3.33;;
70806;SDS011;58882;52.170;5.386;2022-07-23T03:30:27;8.00;;;4.05;;
70806;SDS011;58882;52.170;5.386;2022-07-23T03:33:08;9.45;;;4.00;;
70806;SDS011;58882;52.170;5.386;2022-07-23T03:36:02;6.63;;;3.58;;
70806;SDS011;58882;52.170;5.386;2022-07-23T03:38:44;6.38;;;3.30;;
70806;SDS011;58882;52.170;5.386;2022-07-23T03:41:31;9.15;;;3.70;;
70806;SDS011;58882;52.170;5.386;2022-07-23T03:44:11;12.32;;;3.58;;
70806;SDS011;58882;52.170;5.386;2022-07-23T03:46:58;9.18;;;3.55;;
70806;SDS011;58882;52.170;5.386;2022-07-23T03:49:32;8.48;;;3.95;;
70806;SDS011;58882;52.170;5.386;2022-07-23T03:52:26;8.32;;;3.63;;
70806;SDS011;58882;52.170;5.386;2022-07-23T03:55:07;7.93;;;3.58;;
70806;SDS011;58882;52.170;5.386;2022-07-23T03:57:53;9.50;;;3.95;;
70806;SDS011;58882;52.170;5.386;2022-07-23T04:00:34;9.88;;;3.70;;
70806;SDS011;58882;52.170;5.386;2022-07-23T04:03:20;7.60;;;3.63;;
70806;SDS011;58882;52.170;5.386;2022-07-23T04:06:00;7.82;;;3.97;;
70806;SDS011;58882;52.170;5.386;2022-07-23T04:08:47;11.95;;;3.90;;
70806;SDS011;58882;52.170;5.386;2022-07-23T04:11:35;11.40;;;3.95;;
70806;SDS011;58882;52.170;5.386;2022-07-23T04:14:29;9.10;;;3.83;;
70806;SDS011;58882;52.170;5.386;2022-07-23T04:17:10;7.15;;;3.70;;
70806;SDS011;58882;52.170;5.386;2022-07-23T04:19:58;7.70;;;3.45;;
70806;SDS011;58882;52.170;5.386;2022-07-23T04:22:46;9.77;;;3.63;;
70806;SDS011;58882;52.170;5.386;2022-07-23T04:25:32;9.55;;;3.80;;
70806;SDS011;58882;52.170;5.386;2022-07-23T04:28:13;8.82;;;3.42;;
70806;SDS011;58882;52.170;5.386;2022-07-23T04:31:06;8.88;;;3.50;;
70806;SDS011;58882;52.170;5.386;2022-07-23T04:33:47;7.43;;;3.70;;
70806;SDS011;58882;52.170;5.386;2022-07-23T04:36:33;8.40;;;3.75;;
70806;SDS011;58882;52.170;5.386;2022-07-23T04:39:14;7.43;;;3.67;;
70806;SDS011;58882;52.170;5.386;2022-07-23T04:42:00;8.68;;;3.53;;
70806;SDS011;58882;52.170;5.386;2022-07-23T04:44:34;6.75;;;3.60;;
70806;SDS011;58882;52.170;5.386;2022-07-23T04:47:27;8.70;;;3.67;;
70806;SDS011;58882;52.170;5.386;2022-07-23T04:50:01;7.22;;;3.70;;
70806;SDS011;58882;52.170;5.386;2022-07-23T04:52:57;7.47;;;3.75;;
70806;SDS011;58882;52.170;5.386;2022-07-23T04:55:38;7.65;;;3.83;;
70806;SDS011;58882;52.170;5.386;2022-07-23T04:58:25;7.07;;;3.70;;
70806;SDS011;58882;52.170;5.386;2022-07-23T05:01:06;7.35;;;3.70;;
70806;SDS011;58882;52.170;5.386;2022-07-23T05:03:52;6.57;;;3.47;;
70806;SDS011;58882;52.170;5.386;2022-07-23T05:06:35;7.88;;;3.60;;
70806;SDS011;58882;52.170;5.386;2022-07-23T05:09:29;11.60;;;3.50;;
70806;SDS011;58882;52.170;5.386;2022-07-23T05:12:23;9.88;;;3.60;;
70806;SDS011;58882;52.170;5.386;2022-07-23T05:14:57;9.38;;;3.35;;
70806;SDS011;58882;52.170;5.386;2022-07-23T05:17:50;9.55;;;3.50;;
70806;SDS011;58882;52.170;5.386;2022-07-23T05:20:31;10.93;;;3.40;;
70806;SDS011;58882;52.170;5.386;2022-07-23T05:23:21;8.38;;;3.70;;
70806;SDS011;58882;52.170;5.386;2022-07-23T05:26:02;6.13;;;3.15;;
70806;SDS011;58882;52.170;5.386;2022-07-23T05:28:48;8.75;;;3.30;;
70806;SDS011;58882;52.170;5.386;2022-07-23T05:31:29;12.18;;;3.25;;
70806;SDS011;58882;52.170;5.386;2022-07-23T05:34:15;8.38;;;3.50;;
70806;SDS011;58882;52.170;5.386;2022-07-23T05:36:57;8.57;;;3.28;;
70806;SDS011;58882;52.170;5.386;2022-07-23T05:39:43;9.80;;;3.55;;
70806;SDS011;58882;52.170;5.386;2022-07-23T05:42:23;12.35;;;3.30;;
70806;SDS011;58882;52.170;5.386;2022-07-23T05:45:11;6.88;;;2.92;;
70806;SDS011;58882;52.170;5.386;2022-07-23T05:50:43;10.30;;;2.92;;
70806;SDS011;58882;52.170;5.386;2022-07-23T05:53:29;7.40;;;3.03;;
70806;SDS011;58882;52.170;5.386;2022-07-23T05:56:26;8.20;;;2.85;;
70806;SDS011;58882;52.170;5.386;2022-07-23T05:59:07;8.52;;;2.90;;
70806;SDS011;58882;52.170;5.386;2022-07-23T06:01:54;15.90;;;3.22;;
70806;SDS011;58882;52.170;5.386;2022-07-23T06:04:34;7.53;;;2.72;;
70806;SDS011;58882;52.170;5.386;2022-07-23T06:07:33;7.93;;;3.03;;
70806;SDS011;58882;52.170;5.386;2022-07-23T06:10:20;6.05;;;2.60;;
70806;SDS011;58882;52.170;5.386;2022-07-23T06:13:14;6.88;;;2.72;;
70806;SDS011;58882;52.170;5.386;2022-07-23T06:15:56;8.05;;;2.80;;
70806;SDS011;58882;52.170;5.386;2022-07-23T06:18:50;5.65;;;2.58;;
70806;SDS011;58882;52.170;5.386;2022-07-23T06:21:31;5.07;;;2.47;;
70806;SDS011;58882;52.170;5.386;2022-07-23T06:24:26;5.38;;;2.28;;
70806;SDS011;58882;52.170;5.386;2022-07-23T06:27:07;5.13;;;2.40;;
70806;SDS011;58882;52.170;5.386;2022-07-23T06:29:53;5.45;;;2.30;;
70806;SDS011;58882;52.170;5.386;2022-07-23T06:32:34;7.90;;;2.35;;
70806;SDS011;58882;52.170;5.386;2022-07-23T06:35:20;5.75;;;2.30;;
70806;SDS011;58882;52.170;5.386;2022-07-23T06:38:00;7.22;;;2.20;;
70806;SDS011;58882;52.170;5.386;2022-07-23T06:40:47;3.75;;;1.60;;
70806;SDS011;58882;52.170;5.386;2022-07-23T06:43:29;5.10;;;2.25;;
70806;SDS011;58882;52.170;5.386;2022-07-23T06:46:16;3.67;;;1.77;;
70806;SDS011;58882;52.170;5.386;2022-07-23T06:48:57;2.70;;;1.63;;
70806;SDS011;58882;52.170;5.386;2022-07-23T06:51:44;5.28;;;1.70;;
70806;SDS011;58882;52.170;5.386;2022-07-23T06:54:25;4.85;;;1.90;;
70806;SDS011;58882;52.170;5.386;2022-07-23T06:57:11;5.55;;;1.63;;
70806;SDS011;58882;52.170;5.386;2022-07-23T06:59:52;3.78;;;1.80;;
70806;SDS011;58882;52.170;5.386;2022-07-23T07:02:39;3.92;;;1.42;;
70806;SDS011;58882;52.170;5.386;2022-07-23T07:05:20;7.03;;;1.50;;
70806;SDS011;58882;52.170;5.386;2022-07-23T07:08:06;3.55;;;1.42;;
70806;SDS011;58882;52.170;5.386;2022-07-23T07:10:53;5.78;;;1.60;;
70806;SDS011;58882;52.170;5.386;2022-07-23T07:13:34;5.03;;;1.50;;
70806;SDS011;58882;52.170;5.386;2022-07-23T07:16:20;7.35;;;1.60;;
70806;SDS011;58882;52.170;5.386;2022-07-23T07:19:05;5.65;;;1.40;;
70806;SDS011;58882;52.170;5.386;2022-07-23T07:21:51;5.47;;;1.40;;
70806;SDS011;58882;52.170;5.386;2022-07-23T07:24:32;5.80;;;1.48;;
70806;SDS011;58882;52.170;5.386;2022-07-23T07:27:18;7.00;;;1.15;;
70806;SDS011;58882;52.170;5.386;2022-07-23T07:29:59;5.93;;;1.30;;
70806;SDS011;58882;52.170;5.386;2022-07-23T07:32:45;5.78;;;1.50;;
70806;SDS011;58882;52.170;5.386;2022-07-23T07:35:29;5.32;;;1.40;;
70806;SDS011;58882;52.170;5.386;2022-07-23T07:38:17;7.20;;;1.20;;
70806;SDS011;58882;52.170;5.386;2022-07-23T07:40:52;3.65;;;1.30;;
70806;SDS011;58882;52.170;5.386;2022-07-23T07:43:45;2.13;;;1.10;;
70806;SDS011;58882;52.170;5.386;2022-07-23T07:46:26;2.55;;;1.23;;
70806;SDS011;58882;52.170;5.386;2022-07-23T07:49:13;2.08;;;1.20;;
70806;SDS011;58882;52.170;5.386;2022-07-23T07:51:49;3.63;;;1.20;;
70806;SDS011;58882;52.170;5.386;2022-07-23T07:54:42;2.95;;;1.10;;
70806;SDS011;58882;52.170;5.386;2022-07-23T07:57:23;3.58;;;1.25;;
70806;SDS011;58882;52.170;5.386;2022-07-23T08:00:11;2.10;;;1.10;;
70806;SDS011;58882;52.170;5.386;2022-07-23T08:02:52;4.57;;;1.30;;
70806;SDS011;58882;52.170;5.386;2022-07-23T08:05:41;7.10;;;1.40;;
70806;SDS011;58882;52.170;5.386;2022-07-23T08:08:21;3.25;;;1.10;;
70806;SDS011;58882;52.170;5.386;2022-07-23T08:11:15;4.57;;;1.30;;
70806;SDS011;58882;52.170;5.386;2022-07-23T08:14:09;4.68;;;1.40;;
70806;SDS011;58882;52.170;5.386;2022-07-23T08:16:44;4.43;;;1.20;;
70806;SDS011;58882;52.170;5.386;2022-07-23T08:19:53;3.85;;;1.10;;
70806;SDS011;58882;52.170;5.386;2022-07-23T08:25:41;2.70;;;1.23;;
70806;SDS011;58882;52.170;5.386;2022-07-23T08:28:22;2.60;;;1.20;;
70806;SDS011;58882;52.170;5.386;2022-07-23T08:31:19;3.15;;;1.10;;
70806;SDS011;58882;52.170;5.386;2022-07-23T08:34:00;2.05;;;1.10;;
70806;SDS011;58882;52.170;5.386;2022-07-23T08:36:46;4.95;;;1.10;;
70806;SDS011;58882;52.170;5.386;2022-07-23T08:39:33;3.75;;;1.20;;
70806;SDS011;58882;52.170;5.386;2022-07-23T08:42:14;2.92;;;1.25;;
70806;SDS011;58882;52.170;5.386;2022-07-23T08:45:08;2.92;;;0.90;;
70806;SDS011;58882;52.170;5.386;2022-07-23T08:47:41;2.45;;;1.10;;
70806;SDS011;58882;52.170;5.386;2022-07-23T08:50:36;1.98;;;0.80;;
70806;SDS011;58882;52.170;5.386;2022-07-23T08:53:18;2.60;;;0.88;;
70806;SDS011;58882;52.170;5.386;2022-07-23T08:56:12;1.92;;;1.05;;
70806;SDS011;58882;52.170;5.386;2022-07-23T08:58:45;3.03;;;1.20;;
70806;SDS011;58882;52.170;5.386;2022-07-23T09:01:39;2.63;;;1.10;;
70806;SDS011;58882;52.170;5.386;2022-07-23T09:04:20;2.00;;;0.82;;
70806;SDS011;58882;52.170;5.386;2022-07-23T09:07:06;2.33;;;0.93;;
70806;SDS011;58882;52.170;5.386;2022-07-23T09:09:50;2.10;;;1.00;;
70806;SDS011;58882;52.170;5.386;2022-07-23T09:12:54;2.70;;;1.20;;
70806;SDS011;58882;52.170;5.386;2022-07-23T09:15:38;2.42;;;1.20;;
70806;SDS011;58882;52.170;5.386;2022-07-23T09:18:36;1.27;;;0.80;;
70806;SDS011;58882;52.170;5.386;2022-07-23T09:21:25;1.30;;;0.95;;
70806;SDS011;58882;52.170;5.386;2022-07-23T09:24:13;1.38;;;0.90;;
70806;SDS011;58882;52.170;5.386;2022-07-23T09:26:56;1.63;;;1.00;;
70806;SDS011;58882;52.170;5.386;2022-07-23T09:29:57;1.20;;;0.95;;
70806;SDS011;58882;52.170;5.386;2022-07-23T09:32:31;2.45;;;1.10;;
70806;SDS011;58882;52.170;5.386;2022-07-23T09:35:33;3.70;;;1.05;;
70806;SDS011;58882;52.170;5.386;2022-07-23T09:38:33;2.40;;;0.93;;
70806;SDS011;58882;52.170;5.386;2022-07-23T09:41:29;2.47;;;1.10;;
70806;SDS011;58882;52.170;5.386;2022-07-23T09:44:15;2.38;;;1.00;;
70806;SDS011;58882;52.170;5.386;2022-07-23T09:47:10;2.63;;;1.00;;
70806;SDS011;58882;52.170;5.386;2022-07-23T09:49:57;2.70;;;1.10;;
70806;SDS011;58882;52.170;5.386;2022-07-23T09:52:47;1.27;;;0.95;;
70806;SDS011;58882;52.170;5.386;2022-07-23T09:55:33;1.10;;;0.80;;
70806;SDS011;58882;52.170;5.386;2022-07-23T09:58:27;1.70;;;1.10;;
70806;SDS011;58882;52.170;5.386;2022-07-23T10:01:09;1.95;;;0.98;;
70806;SDS011;58882;52.170;5.386;2022-07-23T10:03:57;0.85;;;0.80;;
70806;SDS011;58882;52.170;5.386;2022-07-23T10:07:02;1.85;;;1.00;;
70806;SDS011;58882;52.170;5.386;2022-07-23T10:10:15;1.65;;;1.02;;
70806;SDS011;58882;52.170;5.386;2022-07-23T10:13:23;2.65;;;1.10;;
70806;SDS011;58882;52.170;5.386;2022-07-23T10:16:43;1.83;;;1.10;;
70806;SDS011;58882;52.170;5.386;2022-07-23T10:19:24;4.85;;;0.98;;
70806;SDS011;58882;52.170;5.386;2022-07-23T10:22:19;1.40;;;0.98;;
70806;SDS011;58882;52.170;5.386;2022-07-23T10:31:25;2.38;;;1.00;;
70806;SDS011;58882;52.170;5.386;2022-07-23T10:37:36;1.60;;;1.00;;
70806;SDS011;58882;52.170;5.386;2022-07-23T10:40:24;1.25;;;0.90;;
70806;SDS011;58882;52.170;5.386;2022-07-23T10:42:59;2.10;;;1.00;;
70806;SDS011;58882;52.170;5.386;2022-07-23T10:49:24;2.28;;;1.10;;
70806;SDS011;58882;52.170;5.386;2022-07-23T10:52:24;1.65;;;1.00;;
70806;SDS011;58882;52.170;5.386;2022-07-23T10:58:01;1.73;;;1.00;;
70806;SDS011;58882;52.170;5.386;2022-07-23T11:00:43;2.05;;;0.90;;
70806;SDS011;58882;52.170;5.386;2022-07-23T11:03:31;1.10;;;1.00;;
70806;SDS011;58882;52.170;5.386;2022-07-23T11:06:16;1.98;;;0.93;;
70806;SDS011;58882;52.170;5.386;2022-07-23T11:15:14;2.63;;;1.13;;
70806;SDS011;58882;52.170;5.386;2022-07-23T11:20:40;1.55;;;1.05;;
70806;SDS011;58882;52.170;5.386;2022-07-23T11:23:14;1.65;;;1.08;;
70806;SDS011;58882;52.170;5.386;2022-07-23T11:26:07;1.40;;;1.00;;
70806;SDS011;58882;52.170;5.386;2022-07-23T11:28:41;2.00;;;1.20;;
70806;SDS011;58882;52.170;5.386;2022-07-23T11:31:34;2.40;;;1.20;;
70806;SDS011;58882;52.170;5.386;2022-07-23T11:37:11;2.03;;;1.10;;
70806;SDS011;58882;52.170;5.386;2022-07-23T11:40:13;1.63;;;1.10;;
70806;SDS011;58882;52.170;5.386;2022-07-23T11:42:55;1.63;;;1.00;;
70806;SDS011;58882;52.170;5.386;2022-07-23T11:45:59;2.10;;;1.35;;
70806;SDS011;58882;52.170;5.386;2022-07-23T11:48:40;1.95;;;1.10;;
70806;SDS011;58882;52.170;5.386;2022-07-23T11:51:33;2.80;;;1.42;;
70806;SDS011;58882;52.170;5.386;2022-07-23T11:54:07;2.40;;;1.20;;
70806;SDS011;58882;52.170;5.386;2022-07-23T11:57:01;2.47;;;1.30;;
70806;SDS011;58882;52.170;5.386;2022-07-23T11:59:36;2.00;;;1.30;;
70806;SDS011;58882;52.170;5.386;2022-07-23T12:02:32;2.97;;;1.45;;
70806;SDS011;58882;52.170;5.386;2022-07-23T12:05:16;3.40;;;1.60;;
70806;SDS011;58882;52.170;5.386;2022-07-23T12:08:08;2.63;;;1.38;;
70806;SDS011;58882;52.170;5.386;2022-07-23T12:10:56;3.80;;;1.63;;
70806;SDS011;58882;52.170;5.386;2022-07-23T12:13:37;3.28;;;1.38;;
70806;SDS011;58882;52.170;5.386;2022-07-23T12:16:23;2.75;;;1.60;;
70806;SDS011;58882;52.170;5.386;2022-07-23T12:19:04;2.53;;;1.50;;
70806;SDS011;58882;52.170;5.386;2022-07-23T12:21:57;2.80;;;1.50;;
70806;SDS011;58882;52.170;5.386;2022-07-23T12:24:51;3.15;;;1.70;;
70806;SDS011;58882;52.170;5.386;2022-07-23T12:27:57;3.28;;;1.40;;
70806;SDS011;58882;52.170;5.386;2022-07-23T12:30:43;2.15;;;1.33;;
70806;SDS011;58882;52.170;5.386;2022-07-23T12:33:39;2.90;;;1.42;;
70806;SDS011;58882;52.170;5.386;2022-07-23T12:36:20;3.17;;;1.48;;
70806;SDS011;58882;52.170;5.386;2022-07-23T12:39:32;2.63;;;1.50;;
70806;SDS011;58882;52.170;5.386;2022-07-23T12:42:13;2.70;;;1.50;;
70806;SDS011;58882;52.170;5.386;2022-07-23T12:45:07;2.25;;;1.42;;
70806;SDS011;58882;52.170;5.386;2022-07-23T12:47:50;3.15;;;1.58;;
70806;SDS011;58882;52.170;5.386;2022-07-23T12:50:49;1.92;;;1.30;;
70806;SDS011;58882;52.170;5.386;2022-07-23T12:54:06;2.67;;;1.42;;
70806;SDS011;58882;52.170;5.386;2022-07-23T12:56:48;1.88;;;1.40;;
70806;SDS011;58882;52.170;5.386;2022-07-23T12:59:41;2.13;;;1.60;;
70806;SDS011;58882;52.170;5.386;2022-07-23T13:02:23;1.95;;;1.25;;
70806;SDS011;58882;52.170;5.386;2022-07-23T13:05:16;3.08;;;1.65;;
70806;SDS011;58882;52.170;5.386;2022-07-23T13:07:50;3.00;;;1.40;;
70806;SDS011;58882;52.170;5.386;2022-07-23T13:10:46;2.50;;;1.70;;
70806;SDS011;58882;52.170;5.386;2022-07-23T13:13:41;2.50;;;1.55;;
70806;SDS011;58882;52.170;5.386;2022-07-23T13:16:21;2.80;;;1.52;;
70806;SDS011;58882;52.170;5.386;2022-07-23T13:19:07;2.55;;;1.60;;
70806;SDS011;58882;52.170;5.386;2022-07-23T13:21:51;3.08;;;1.50;;
70806;SDS011;58882;52.170;5.386;2022-07-23T13:24:38;2.45;;;1.70;;
70806;SDS011;58882;52.170;5.386;2022-07-23T13:27:18;2.55;;;1.48;;
70806;SDS011;58882;52.170;5.386;2022-07-23T13:30:05;2.33;;;1.40;;
70806;SDS011;58882;52.170;5.386;2022-07-23T13:32:47;2.58;;;1.70;;
70806;SDS011;58882;52.170;5.386;2022-07-23T13:35:40;2.63;;;1.30;;
70806;SDS011;58882;52.170;5.386;2022-07-23T13:38:20;2.92;;;1.70;;
70806;SDS011;58882;52.170;5.386;2022-07-23T13:41:07;1.80;;;1.40;;
70806;SDS011;58882;52.170;5.386;2022-07-23T13:43:47;2.45;;;1.58;;
70806;SDS011;58882;52.170;5.386;2022-07-23T13:46:42;2.90;;;1.60;;
70806;SDS011;58882;52.170;5.386;2022-07-23T13:49:15;3.33;;;1.50;;
70806;SDS011;58882;52.170;5.386;2022-07-23T13:52:09;3.70;;;1.67;;
70806;SDS011;58882;52.170;5.386;2022-07-23T13:54:49;2.70;;;1.52;;
70806;SDS011;58882;52.170;5.386;2022-07-23T13:57:36;3.25;;;1.50;;
70806;SDS011;58882;52.170;5.386;2022-07-23T14:00:16;2.80;;;1.50;;
70806;SDS011;58882;52.170;5.386;2022-07-23T14:03:23;4.20;;;1.60;;
70806;SDS011;58882;52.170;5.386;2022-07-23T14:05:57;3.00;;;1.52;;
70806;SDS011;58882;52.170;5.386;2022-07-23T14:08:54;4.72;;;2.10;;
70806;SDS011;58882;52.170;5.386;2022-07-23T14:11:28;2.65;;;1.40;;
70806;SDS011;58882;52.170;5.386;2022-07-23T14:14:21;2.67;;;1.52;;
70806;SDS011;58882;52.170;5.386;2022-07-23T14:16:55;3.20;;;1.55;;
70806;SDS011;58882;52.170;5.386;2022-07-23T14:19:50;2.33;;;1.52;;
70806;SDS011;58882;52.170;5.386;2022-07-23T14:22:30;2.58;;;1.50;;
70806;SDS011;58882;52.170;5.386;2022-07-23T14:25:17;2.55;;;1.52;;
70806;SDS011;58882;52.170;5.386;2022-07-23T14:27:58;4.07;;;1.60;;
70806;SDS011;58882;52.170;5.386;2022-07-23T14:30:44;2.13;;;1.50;;
70806;SDS011;58882;52.170;5.386;2022-07-23T14:33:25;3.42;;;1.73;;
70806;SDS011;58882;52.170;5.386;2022-07-23T14:36:11;3.30;;;1.80;;
70806;SDS011;58882;52.170;5.386;2022-07-23T14:38:52;3.17;;;1.50;;
70806;SDS011;58882;52.170;5.386;2022-07-23T14:41:40;3.38;;;1.67;;
70806;SDS011;58882;52.170;5.386;2022-07-23T14:44:20;2.25;;;1.58;;
70806;SDS011;58882;52.170;5.386;2022-07-23T14:47:07;3.25;;;1.60;;
70806;SDS011;58882;52.170;5.386;2022-07-23T14:49:53;3.30;;;1.80;;
70806;SDS011;58882;52.170;5.386;2022-07-23T14:52:40;2.25;;;1.70;;
70806;SDS011;58882;52.170;5.386;2022-07-23T14:55:21;3.67;;;1.70;;
70806;SDS011;58882;52.170;5.386;2022-07-23T14:58:08;2.83;;;1.65;;
70806;SDS011;58882;52.170;5.386;2022-07-23T15:00:50;3.38;;;1.83;;
70806;SDS011;58882;52.170;5.386;2022-07-23T15:03:38;3.92;;;1.92;;
70806;SDS011;58882;52.170;5.386;2022-07-23T15:06:18;3.33;;;1.63;;
70806;SDS011;58882;52.170;5.386;2022-07-23T15:09:05;4.10;;;2.00;;
70806;SDS011;58882;52.170;5.386;2022-07-23T15:11:53;2.83;;;1.70;;
70806;SDS011;58882;52.170;5.386;2022-07-23T15:14:33;3.97;;;1.63;;
70806;SDS011;58882;52.170;5.386;2022-07-23T15:17:20;3.85;;;1.95;;
70806;SDS011;58882;52.170;5.386;2022-07-23T15:19:54;6.25;;;1.88;;
70806;SDS011;58882;52.170;5.386;2022-07-23T15:22:48;4.00;;;1.70;;
70806;SDS011;58882;52.170;5.386;2022-07-23T15:25:21;5.40;;;1.88;;
70806;SDS011;58882;52.170;5.386;2022-07-23T15:28:15;12.40;;;2.20;;
70806;SDS011;58882;52.170;5.386;2022-07-23T15:30:55;5.72;;;1.67;;
70806;SDS011;58882;52.170;5.386;2022-07-23T15:33:49;3.38;;;1.65;;
70806;SDS011;58882;52.170;5.386;2022-07-23T15:36:29;7.95;;;2.03;;
70806;SDS011;58882;52.170;5.386;2022-07-23T15:39:23;8.57;;;2.03;;
70806;SDS011;58882;52.170;5.386;2022-07-23T15:42:03;9.45;;;1.85;;
70806;SDS011;58882;52.170;5.386;2022-07-23T15:44:54;8.65;;;2.58;;
70806;SDS011;58882;52.170;5.386;2022-07-23T15:47:34;6.85;;;1.80;;
70806;SDS011;58882;52.170;5.386;2022-07-23T15:50:21;6.53;;;2.10;;
70806;SDS011;58882;52.170;5.386;2022-07-23T15:53:01;5.40;;;1.90;;
70806;SDS011;58882;52.170;5.386;2022-07-23T15:55:55;3.28;;;1.90;;
70806;SDS011;58882;52.170;5.386;2022-07-23T15:58:35;8.23;;;2.10;;
70806;SDS011;58882;52.170;5.386;2022-07-23T16:01:24;4.32;;;2.17;;
70806;SDS011;58882;52.170;5.386;2022-07-23T16:04:04;3.95;;;2.08;;
70806;SDS011;58882;52.170;5.386;2022-07-23T16:06:51;2.90;;;1.88;;
70806;SDS011;58882;52.170;5.386;2022-07-23T16:09:31;5.60;;;2.10;;
70806;SDS011;58882;52.170;5.386;2022-07-23T16:12:18;4.70;;;2.20;;
70806;SDS011;58882;52.170;5.386;2022-07-23T16:14:58;5.45;;;2.30;;
70806;SDS011;58882;52.170;5.386;2022-07-23T16:17:46;4.20;;;2.05;;
70806;SDS011;58882;52.170;5.386;2022-07-23T16:20:26;3.65;;;2.20;;
70806;SDS011;58882;52.170;5.386;2022-07-23T16:23:13;13.75;;;2.83;;
70806;SDS011;58882;52.170;5.386;2022-07-23T16:25:53;7.43;;;2.50;;
70806;SDS011;58882;52.170;5.386;2022-07-23T16:28:40;9.38;;;2.67;;
70806;SDS011;58882;52.170;5.386;2022-07-23T16:31:21;6.68;;;2.40;;
70806;SDS011;58882;52.170;5.386;2022-07-23T16:34:11;10.82;;;2.50;;
70806;SDS011;58882;52.170;5.386;2022-07-23T16:36:52;6.55;;;2.25;;
70806;SDS011;58882;52.170;5.386;2022-07-23T16:39:39;4.25;;;2.33;;
70806;SDS011;58882;52.170;5.386;2022-07-23T16:42:19;5.00;;;2.00;;
70806;SDS011;58882;52.170;5.386;2022-07-23T16:45:08;5.50;;;2.20;;
70806;SDS011;58882;52.170;5.386;2022-07-23T16:47:49;5.03;;;1.95;;
70806;SDS011;58882;52.170;5.386;2022-07-23T16:50:36;3.88;;;2.15;;
70806;SDS011;58882;52.170;5.386;2022-07-23T16:53:16;6.25;;;2.20;;
70806;SDS011;58882;52.170;5.386;2022-07-23T16:56:10;4.25;;;1.92;;
70806;SDS011;58882;52.170;5.386;2022-07-23T16:58:43;4.90;;;2.05;;
70806;SDS011;58882;52.170;5.386;2022-07-23T17:01:37;8.13;;;2.33;;
70806;SDS011;58882;52.170;5.386;2022-07-23T17:04:18;4.25;;;2.30;;
70806;SDS011;58882;52.170;5.386;2022-07-23T17:07:06;6.80;;;2.40;;
70806;SDS011;58882;52.170;5.386;2022-07-23T17:09:47;7.15;;;2.40;;
70806;SDS011;58882;52.170;5.386;2022-07-23T17:12:34;6.32;;;2.40;;
70806;SDS011;58882;52.170;5.386;2022-07-23T17:15:14;5.13;;;2.20;;
70806;SDS011;58882;52.170;5.386;2022-07-23T17:18:01;3.95;;;2.20;;
70806;SDS011;58882;52.170;5.386;2022-07-23T17:20:43;6.65;;;2.60;;